sensor_id;sensor_type;location;lat;lon;timestamp;temperature;humidity
2751;DHT22;1383;48.362;10.908;2023-07-29T00:00:11;18.70;95.00
2751;DHT22;1383;48.362;10.908;2023-07-29T00:02:40;18.70;95.00
2751;DHT22;1383;48.362;10.908;2023-07-29T00:05:07;18.80;95.10
2751;DHT22;1383;48.362;10.908;2023-07-29T00:07:35;18.70;95.00
2751;DHT22;1383;48.362;10.908;2023-07-29T00:10:03;18.70;94.90
2751;DHT22;1383;48.362;10.908;2023-07-29T00:12:31;18.70;94.70
2751;DHT22;1383;48.362;10.908;2023-07-29T00:14:59;18.70;94.60
2751;DHT22;1383;48.362;10.908;2023-07-29T00:17:26;18.70;94.60
2751;DHT22;1383;48.362;10.908;2023-07-29T00:19:53;18.60;94.40
2751;DHT22;1383;48.362;10.908;2023-07-29T00:22:20;18.70;94.70
2751;DHT22;1383;48.362;10.908;2023-07-29T00:24:54;18.60;94.60
2751;DHT22;1383;48.362;10.908;2023-07-29T00:27:22;18.60;94.70
2751;DHT22;1383;48.362;10.908;2023-07-29T00:29:49;18.50;94.80
2751;DHT22;1383;48.362;10.908;2023-07-29T00:32:17;18.50;95.00
2751;DHT22;1383;48.362;10.908;2023-07-29T00:34:44;18.40;94.80
2751;DHT22;1383;48.362;10.908;2023-07-29T00:37:11;18.40;94.90
2751;DHT22;1383;48.362;10.908;2023-07-29T00:39:39;18.40;95.00
2751;DHT22;1383;48.362;10.908;2023-07-29T00:42:08;18.40;95.00
2751;DHT22;1383;48.362;10.908;2023-07-29T00:44:36;18.30;95.00
2751;DHT22;1383;48.362;10.908;2023-07-29T00:47:05;18.20;95.20
2751;DHT22;1383;48.362;10.908;2023-07-29T00:49:33;18.20;95.50
2751;DHT22;1383;48.362;10.908;2023-07-29T00:52:02;18.20;95.80
2751;DHT22;1383;48.362;10.908;2023-07-29T00:54:29;18.10;96.00
2751;DHT22;1383;48.362;10.908;2023-07-29T00:56:57;18.00;96.30
2751;DHT22;1383;48.362;10.908;2023-07-29T00:59:24;18.00;96.80
2751;DHT22;1383;48.362;10.908;2023-07-29T01:01:52;17.90;97.10
2751;DHT22;1383;48.362;10.908;2023-07-29T01:04:19;17.90;97.30
2751;DHT22;1383;48.362;10.908;2023-07-29T01:15:15;17.70;97.60
2751;DHT22;1383;48.362;10.908;2023-07-29T01:17:49;17.80;98.10
2751;DHT22;1383;48.362;10.908;2023-07-29T01:20:20;17.80;97.80
2751;DHT22;1383;48.362;10.908;2023-07-29T01:22:48;17.70;97.80
2751;DHT22;1383;48.362;10.908;2023-07-29T01:25:15;17.80;98.00
2751;DHT22;1383;48.362;10.908;2023-07-29T01:27:44;17.80;97.60
2751;DHT22;1383;48.362;10.908;2023-07-29T01:30:12;17.80;97.70
2751;DHT22;1383;48.362;10.908;2023-07-29T01:32:56;17.80;97.70
2751;DHT22;1383;48.362;10.908;2023-07-29T01:35:42;17.80;97.60
2751;DHT22;1383;48.362;10.908;2023-07-29T01:38:44;17.90;97.30
2751;DHT22;1383;48.362;10.908;2023-07-29T01:41:11;17.90;97.20
2751;DHT22;1383;48.362;10.908;2023-07-29T01:43:39;17.90;96.70
2751;DHT22;1383;48.362;10.908;2023-07-29T01:46:11;17.80;96.50
2751;DHT22;1383;48.362;10.908;2023-07-29T01:48:41;17.80;96.70
2751;DHT22;1383;48.362;10.908;2023-07-29T01:51:11;17.70;97.10
2751;DHT22;1383;48.362;10.908;2023-07-29T01:53:39;17.70;97.10
2751;DHT22;1383;48.362;10.908;2023-07-29T01:56:06;17.70;97.20
2751;DHT22;1383;48.362;10.908;2023-07-29T01:58:33;17.60;97.20
2751;DHT22;1383;48.362;10.908;2023-07-29T02:01:00;17.60;97.40
2751;DHT22;1383;48.362;10.908;2023-07-29T02:03:27;17.60;97.60
2751;DHT22;1383;48.362;10.908;2023-07-29T02:05:55;17.50;97.60
2751;DHT22;1383;48.362;10.908;2023-07-29T02:08:22;17.50;97.40
2751;DHT22;1383;48.362;10.908;2023-07-29T02:10:49;17.50;97.40
2751;DHT22;1383;48.362;10.908;2023-07-29T02:13:16;17.40;97.60
2751;DHT22;1383;48.362;10.908;2023-07-29T02:15:43;17.40;97.80
2751;DHT22;1383;48.362;10.908;2023-07-29T02:18:11;17.50;97.90
2751;DHT22;1383;48.362;10.908;2023-07-29T02:20:38;17.50;97.80
2751;DHT22;1383;48.362;10.908;2023-07-29T02:23:05;17.50;98.00
2751;DHT22;1383;48.362;10.908;2023-07-29T02:25:35;17.50;98.00
2751;DHT22;1383;48.362;10.908;2023-07-29T02:28:02;17.50;97.90
2751;DHT22;1383;48.362;10.908;2023-07-29T02:30:31;17.50;97.90
2751;DHT22;1383;48.362;10.908;2023-07-29T02:32:58;17.50;97.70
2751;DHT22;1383;48.362;10.908;2023-07-29T02:35:27;17.60;97.40
2751;DHT22;1383;48.362;10.908;2023-07-29T02:37:54;17.60;97.20
2751;DHT22;1383;48.362;10.908;2023-07-29T02:40:21;17.60;96.80
2751;DHT22;1383;48.362;10.908;2023-07-29T02:42:49;17.60;96.90
2751;DHT22;1383;48.362;10.908;2023-07-29T02:45:16;17.60;97.00
2751;DHT22;1383;48.362;10.908;2023-07-29T02:47:44;17.60;97.00
2751;DHT22;1383;48.362;10.908;2023-07-29T02:50:11;17.70;96.80
2751;DHT22;1383;48.362;10.908;2023-07-29T02:52:38;17.60;96.40
2751;DHT22;1383;48.362;10.908;2023-07-29T02:55:06;17.60;96.30
2751;DHT22;1383;48.362;10.908;2023-07-29T02:57:33;17.70;95.70
2751;DHT22;1383;48.362;10.908;2023-07-29T03:00:00;17.60;95.60
2751;DHT22;1383;48.362;10.908;2023-07-29T03:02:27;17.70;95.80
2751;DHT22;1383;48.362;10.908;2023-07-29T03:04:55;17.70;95.60
2751;DHT22;1383;48.362;10.908;2023-07-29T03:07:22;17.70;95.30
2751;DHT22;1383;48.362;10.908;2023-07-29T03:09:49;17.80;95.00
2751;DHT22;1383;48.362;10.908;2023-07-29T03:12:16;17.70;95.20
2751;DHT22;1383;48.362;10.908;2023-07-29T03:14:48;17.70;95.40
2751;DHT22;1383;48.362;10.908;2023-07-29T03:17:15;17.60;95.30
2751;DHT22;1383;48.362;10.908;2023-07-29T03:19:42;17.50;95.60
2751;DHT22;1383;48.362;10.908;2023-07-29T03:22:09;17.50;95.90
2751;DHT22;1383;48.362;10.908;2023-07-29T03:24:36;17.60;96.00
2751;DHT22;1383;48.362;10.908;2023-07-29T03:27:04;17.60;95.90
2751;DHT22;1383;48.362;10.908;2023-07-29T03:29:31;17.60;95.90
2751;DHT22;1383;48.362;10.908;2023-07-29T03:31:59;17.70;95.80
2751;DHT22;1383;48.362;10.908;2023-07-29T03:34:26;17.70;95.20
2751;DHT22;1383;48.362;10.908;2023-07-29T03:36:53;17.70;94.60
2751;DHT22;1383;48.362;10.908;2023-07-29T03:39:21;17.70;93.80
2751;DHT22;1383;48.362;10.908;2023-07-29T03:41:48;17.70;93.20
2751;DHT22;1383;48.362;10.908;2023-07-29T03:44:15;17.60;93.20
2751;DHT22;1383;48.362;10.908;2023-07-29T03:46:42;17.50;93.60
2751;DHT22;1383;48.362;10.908;2023-07-29T03:49:10;17.50;93.80
2751;DHT22;1383;48.362;10.908;2023-07-29T03:51:37;17.40;93.60
2751;DHT22;1383;48.362;10.908;2023-07-29T03:54:04;17.40;93.70
2751;DHT22;1383;48.362;10.908;2023-07-29T03:56:31;17.30;94.00
2751;DHT22;1383;48.362;10.908;2023-07-29T03:59:06;17.30;94.20
2751;DHT22;1383;48.362;10.908;2023-07-29T04:01:33;17.20;94.40
2751;DHT22;1383;48.362;10.908;2023-07-29T04:04:01;17.30;94.50
2751;DHT22;1383;48.362;10.908;2023-07-29T04:06:29;17.20;94.40
2751;DHT22;1383;48.362;10.908;2023-07-29T04:08:56;17.20;94.40
2751;DHT22;1383;48.362;10.908;2023-07-29T04:11:24;17.20;94.70
2751;DHT22;1383;48.362;10.908;2023-07-29T04:13:51;17.20;94.80
2751;DHT22;1383;48.362;10.908;2023-07-29T04:16:19;17.10;95.00
2751;DHT22;1383;48.362;10.908;2023-07-29T04:18:46;17.10;94.90
2751;DHT22;1383;48.362;10.908;2023-07-29T04:21:13;17.00;94.90
2751;DHT22;1383;48.362;10.908;2023-07-29T04:23:40;17.00;95.20
2751;DHT22;1383;48.362;10.908;2023-07-29T04:26:07;17.10;95.40
2751;DHT22;1383;48.362;10.908;2023-07-29T04:28:34;17.00;96.00
2751;DHT22;1383;48.362;10.908;2023-07-29T04:31:02;17.10;96.20
2751;DHT22;1383;48.362;10.908;2023-07-29T04:33:30;17.10;96.20
2751;DHT22;1383;48.362;10.908;2023-07-29T04:39:50;17.20;96.20
2751;DHT22;1383;48.362;10.908;2023-07-29T04:42:18;17.40;96.00
2751;DHT22;1383;48.362;10.908;2023-07-29T04:44:45;17.50;95.50
2751;DHT22;1383;48.362;10.908;2023-07-29T04:47:12;17.70;95.10
2751;DHT22;1383;48.362;10.908;2023-07-29T04:49:45;17.80;94.50
2751;DHT22;1383;48.362;10.908;2023-07-29T04:52:15;17.90;94.10
2751;DHT22;1383;48.362;10.908;2023-07-29T05:32:29;19.40;81.70
2751;DHT22;1383;48.362;10.908;2023-07-29T05:34:56;19.30;81.80
2751;DHT22;1383;48.362;10.908;2023-07-29T05:37:24;19.30;83.00
2751;DHT22;1383;48.362;10.908;2023-07-29T05:39:55;19.40;83.00
2751;DHT22;1383;48.362;10.908;2023-07-29T05:45:26;19.80;81.90
2751;DHT22;1383;48.362;10.908;2023-07-29T05:48:15;20.10;79.60
2751;DHT22;1383;48.362;10.908;2023-07-29T05:50:42;20.40;77.00
2751;DHT22;1383;48.362;10.908;2023-07-29T05:53:11;20.50;75.80
2751;DHT22;1383;48.362;10.908;2023-07-29T05:55:40;20.60;75.90
2751;DHT22;1383;48.362;10.908;2023-07-29T05:58:11;20.60;76.20
2751;DHT22;1383;48.362;10.908;2023-07-29T06:00:43;20.70;75.20
2751;DHT22;1383;48.362;10.908;2023-07-29T06:03:16;20.80;74.60
2751;DHT22;1383;48.362;10.908;2023-07-29T06:06:15;20.90;74.80
2751;DHT22;1383;48.362;10.908;2023-07-29T06:08:59;21.10;74.70
2751;DHT22;1383;48.362;10.908;2023-07-29T06:11:32;21.20;74.80
2751;DHT22;1383;48.362;10.908;2023-07-29T06:14:08;21.40;73.80
2751;DHT22;1383;48.362;10.908;2023-07-29T06:16:36;21.40;71.90
2751;DHT22;1383;48.362;10.908;2023-07-29T06:19:43;21.30;71.50
2751;DHT22;1383;48.362;10.908;2023-07-29T06:22:51;21.10;72.00
2751;DHT22;1383;48.362;10.908;2023-07-29T06:25:48;20.80;74.00
2751;DHT22;1383;48.362;10.908;2023-07-29T06:28:16;20.60;76.40
2751;DHT22;1383;48.362;10.908;2023-07-29T06:31:08;20.50;78.20
2751;DHT22;1383;48.362;10.908;2023-07-29T06:33:56;20.40;79.60
2751;DHT22;1383;48.362;10.908;2023-07-29T06:36:25;20.30;80.40
2751;DHT22;1383;48.362;10.908;2023-07-29T06:39:27;20.30;82.40
2751;DHT22;1383;48.362;10.908;2023-07-29T06:42:08;20.10;86.20
2751;DHT22;1383;48.362;10.908;2023-07-29T06:44:37;19.90;89.60
2751;DHT22;1383;48.362;10.908;2023-07-29T06:47:04;19.80;90.60
2751;DHT22;1383;48.362;10.908;2023-07-29T06:49:32;19.70;91.60
2751;DHT22;1383;48.362;10.908;2023-07-29T06:51:59;19.60;92.40
2751;DHT22;1383;48.362;10.908;2023-07-29T06:54:40;19.60;92.70
2751;DHT22;1383;48.362;10.908;2023-07-29T06:57:08;19.50;93.60
2751;DHT22;1383;48.362;10.908;2023-07-29T06:59:35;19.60;94.40
2751;DHT22;1383;48.362;10.908;2023-07-29T07:02:03;19.60;94.10
2751;DHT22;1383;48.362;10.908;2023-07-29T07:04:30;19.70;94.00
2751;DHT22;1383;48.362;10.908;2023-07-29T07:06:58;19.90;93.80
2751;DHT22;1383;48.362;10.908;2023-07-29T07:09:28;20.00;93.90
2751;DHT22;1383;48.362;10.908;2023-07-29T07:12:28;20.00;93.40
2751;DHT22;1383;48.362;10.908;2023-07-29T07:15:27;20.10;93.10
2751;DHT22;1383;48.362;10.908;2023-07-29T07:18:02;20.10;92.80
2751;DHT22;1383;48.362;10.908;2023-07-29T07:20:31;20.30;93.30
2751;DHT22;1383;48.362;10.908;2023-07-29T07:23:00;20.90;94.10
2751;DHT22;1383;48.362;10.908;2023-07-29T07:25:43;21.60;91.00
2751;DHT22;1383;48.362;10.908;2023-07-29T07:28:13;22.50;83.70
2751;DHT22;1383;48.362;10.908;2023-07-29T07:30:47;23.10;73.90
2751;DHT22;1383;48.362;10.908;2023-07-29T07:44:16;23.50;66.40
2751;DHT22;1383;48.362;10.908;2023-07-29T07:46:46;23.70;64.80
2751;DHT22;1383;48.362;10.908;2023-07-29T07:49:20;23.60;63.50
2751;DHT22;1383;48.362;10.908;2023-07-29T07:52:04;23.60;63.20
2751;DHT22;1383;48.362;10.908;2023-07-29T07:54:51;23.60;63.40
2751;DHT22;1383;48.362;10.908;2023-07-29T07:57:33;23.50;63.40
2751;DHT22;1383;48.362;10.908;2023-07-29T08:00:04;23.60;62.80
2751;DHT22;1383;48.362;10.908;2023-07-29T08:03:15;23.50;63.30
2751;DHT22;1383;48.362;10.908;2023-07-29T08:06:30;23.50;64.20
2751;DHT22;1383;48.362;10.908;2023-07-29T08:09:08;23.50;64.20
2751;DHT22;1383;48.362;10.908;2023-07-29T08:12:31;23.50;64.30
2751;DHT22;1383;48.362;10.908;2023-07-29T08:15:21;23.50;65.60
2751;DHT22;1383;48.362;10.908;2023-07-29T08:17:52;23.60;65.20
2751;DHT22;1383;48.362;10.908;2023-07-29T08:21:31;23.80;65.20
2751;DHT22;1383;48.362;10.908;2023-07-29T08:25:08;23.80;62.70
2751;DHT22;1383;48.362;10.908;2023-07-29T08:27:36;23.80;62.70
2751;DHT22;1383;48.362;10.908;2023-07-29T08:30:05;23.80;62.50
2751;DHT22;1383;48.362;10.908;2023-07-29T08:32:39;23.80;62.80
2751;DHT22;1383;48.362;10.908;2023-07-29T08:35:10;23.80;62.10
2751;DHT22;1383;48.362;10.908;2023-07-29T08:37:44;24.00;62.50
2751;DHT22;1383;48.362;10.908;2023-07-29T08:40:27;24.20;62.70
2751;DHT22;1383;48.362;10.908;2023-07-29T08:42:58;24.70;59.90
2751;DHT22;1383;48.362;10.908;2023-07-29T08:45:31;25.10;58.10
2751;DHT22;1383;48.362;10.908;2023-07-29T08:48:02;25.30;55.50
2751;DHT22;1383;48.362;10.908;2023-07-29T08:50:33;25.50;54.60
2751;DHT22;1383;48.362;10.908;2023-07-29T08:53:01;25.80;55.30
2751;DHT22;1383;48.362;10.908;2023-07-29T08:55:30;26.10;51.90
2751;DHT22;1383;48.362;10.908;2023-07-29T08:57:59;26.30;50.80
2751;DHT22;1383;48.362;10.908;2023-07-29T09:00:28;26.80;51.30
2751;DHT22;1383;48.362;10.908;2023-07-29T09:02:56;27.10;49.50
2751;DHT22;1383;48.362;10.908;2023-07-29T09:05:25;27.30;47.30
2751;DHT22;1383;48.362;10.908;2023-07-29T09:07:55;27.30;47.60
2751;DHT22;1383;48.362;10.908;2023-07-29T09:10:26;27.40;48.30
2751;DHT22;1383;48.362;10.908;2023-07-29T09:12:59;27.70;47.10
2751;DHT22;1383;48.362;10.908;2023-07-29T09:18:28;28.40;46.70
2751;DHT22;1383;48.362;10.908;2023-07-29T09:20:58;28.90;44.80
2751;DHT22;1383;48.362;10.908;2023-07-29T09:23:27;29.30;44.50
2751;DHT22;1383;48.362;10.908;2023-07-29T09:26:02;29.50;41.70
2751;DHT22;1383;48.362;10.908;2023-07-29T09:28:36;29.70;42.50
2751;DHT22;1383;48.362;10.908;2023-07-29T09:31:04;29.60;40.40
2751;DHT22;1383;48.362;10.908;2023-07-29T09:33:35;29.60;41.20
2751;DHT22;1383;48.362;10.908;2023-07-29T09:36:09;29.50;40.10
2751;DHT22;1383;48.362;10.908;2023-07-29T09:38:47;29.40;40.90
2751;DHT22;1383;48.362;10.908;2023-07-29T09:41:34;29.20;41.00
2751;DHT22;1383;48.362;10.908;2023-07-29T09:44:05;29.30;41.50
2751;DHT22;1383;48.362;10.908;2023-07-29T09:46:36;29.20;41.30
2751;DHT22;1383;48.362;10.908;2023-07-29T09:49:23;28.80;42.40
2751;DHT22;1383;48.362;10.908;2023-07-29T09:51:51;28.20;43.90
2751;DHT22;1383;48.362;10.908;2023-07-29T09:54:20;27.70;45.60
2751;DHT22;1383;48.362;10.908;2023-07-29T09:56:49;27.10;48.70
2751;DHT22;1383;48.362;10.908;2023-07-29T09:59:34;26.60;51.80
2751;DHT22;1383;48.362;10.908;2023-07-29T10:02:13;26.20;54.30
2751;DHT22;1383;48.362;10.908;2023-07-29T10:04:42;25.50;58.40
2751;DHT22;1383;48.362;10.908;2023-07-29T10:07:11;24.70;63.90
2751;DHT22;1383;48.362;10.908;2023-07-29T10:09:39;23.80;66.40
2751;DHT22;1383;48.362;10.908;2023-07-29T10:12:07;23.20;72.10
2751;DHT22;1383;48.362;10.908;2023-07-29T10:14:36;22.80;72.50
2751;DHT22;1383;48.362;10.908;2023-07-29T10:17:05;22.40;73.90
2751;DHT22;1383;48.362;10.908;2023-07-29T10:19:34;22.00;79.00
2751;DHT22;1383;48.362;10.908;2023-07-29T10:22:03;21.70;83.70
2751;DHT22;1383;48.362;10.908;2023-07-29T10:24:32;21.50;90.00
2751;DHT22;1383;48.362;10.908;2023-07-29T10:27:01;21.30;88.00
2751;DHT22;1383;48.362;10.908;2023-07-29T10:29:38;21.10;91.10
2751;DHT22;1383;48.362;10.908;2023-07-29T10:32:29;20.90;92.00
2751;DHT22;1383;48.362;10.908;2023-07-29T10:34:58;20.90;92.80
2751;DHT22;1383;48.362;10.908;2023-07-29T10:37:25;20.80;91.80
2751;DHT22;1383;48.362;10.908;2023-07-29T10:39:54;20.70;91.90
2751;DHT22;1383;48.362;10.908;2023-07-29T10:42:24;20.70;92.10
2751;DHT22;1383;48.362;10.908;2023-07-29T10:44:54;20.70;92.00
2751;DHT22;1383;48.362;10.908;2023-07-29T10:47:27;20.70;92.30
2751;DHT22;1383;48.362;10.908;2023-07-29T10:49:56;20.70;92.70
2751;DHT22;1383;48.362;10.908;2023-07-29T10:55:03;21.00;93.50
2751;DHT22;1383;48.362;10.908;2023-07-29T10:57:39;21.10;93.00
2751;DHT22;1383;48.362;10.908;2023-07-29T11:00:15;21.30;93.20
2751;DHT22;1383;48.362;10.908;2023-07-29T11:02:58;21.60;93.40
2751;DHT22;1383;48.362;10.908;2023-07-29T11:05:27;21.80;93.90
2751;DHT22;1383;48.362;10.908;2023-07-29T11:08:20;22.00;92.80
2751;DHT22;1383;48.362;10.908;2023-07-29T11:11:06;22.10;91.30
2751;DHT22;1383;48.362;10.908;2023-07-29T11:13:37;22.20;91.10
2751;DHT22;1383;48.362;10.908;2023-07-29T11:16:05;22.20;90.50
2751;DHT22;1383;48.362;10.908;2023-07-29T11:18:35;22.20;90.90
2751;DHT22;1383;48.362;10.908;2023-07-29T11:21:04;22.20;90.20
2751;DHT22;1383;48.362;10.908;2023-07-29T11:23:37;22.30;90.70
2751;DHT22;1383;48.362;10.908;2023-07-29T11:26:07;22.50;90.50
2751;DHT22;1383;48.362;10.908;2023-07-29T11:28:39;22.70;90.40
2751;DHT22;1383;48.362;10.908;2023-07-29T11:31:20;22.90;86.90
2751;DHT22;1383;48.362;10.908;2023-07-29T11:33:48;23.30;83.80
2751;DHT22;1383;48.362;10.908;2023-07-29T11:36:19;23.50;81.80
2751;DHT22;1383;48.362;10.908;2023-07-29T11:38:48;23.60;81.50
2751;DHT22;1383;48.362;10.908;2023-07-29T11:41:19;23.70;80.80
2751;DHT22;1383;48.362;10.908;2023-07-29T11:43:49;23.70;80.80
2751;DHT22;1383;48.362;10.908;2023-07-29T11:48:57;23.80;77.60
2751;DHT22;1383;48.362;10.908;2023-07-29T11:51:44;23.90;80.70
2751;DHT22;1383;48.362;10.908;2023-07-29T11:54:13;24.00;79.90
2751;DHT22;1383;48.362;10.908;2023-07-29T11:56:40;24.10;77.30
2751;DHT22;1383;48.362;10.908;2023-07-29T11:59:08;24.20;76.30
2751;DHT22;1383;48.362;10.908;2023-07-29T12:01:36;24.30;74.70
2751;DHT22;1383;48.362;10.908;2023-07-29T12:04:08;24.20;73.70
2751;DHT22;1383;48.362;10.908;2023-07-29T12:06:37;24.30;77.10
2751;DHT22;1383;48.362;10.908;2023-07-29T12:09:06;24.40;76.20
2751;DHT22;1383;48.362;10.908;2023-07-29T12:11:35;24.50;75.90
2751;DHT22;1383;48.362;10.908;2023-07-29T12:14:07;24.50;77.70
2751;DHT22;1383;48.362;10.908;2023-07-29T12:16:43;24.60;79.50
2751;DHT22;1383;48.362;10.908;2023-07-29T12:19:12;24.70;77.90
2751;DHT22;1383;48.362;10.908;2023-07-29T12:21:42;24.80;78.30
2751;DHT22;1383;48.362;10.908;2023-07-29T12:24:14;24.90;70.30
2751;DHT22;1383;48.362;10.908;2023-07-29T12:26:42;25.00;68.90
2751;DHT22;1383;48.362;10.908;2023-07-29T12:29:15;25.20;67.70
2751;DHT22;1383;48.362;10.908;2023-07-29T12:31:44;25.40;65.40
2751;DHT22;1383;48.362;10.908;2023-07-29T12:34:19;25.40;60.10
2751;DHT22;1383;48.362;10.908;2023-07-29T12:36:54;25.30;60.20
2751;DHT22;1383;48.362;10.908;2023-07-29T12:39:40;25.30;60.60
2751;DHT22;1383;48.362;10.908;2023-07-29T12:42:16;25.30;60.00
2751;DHT22;1383;48.362;10.908;2023-07-29T12:44:44;25.40;61.70
2751;DHT22;1383;48.362;10.908;2023-07-29T12:47:14;25.60;62.00
2751;DHT22;1383;48.362;10.908;2023-07-29T12:49:49;25.60;59.20
2751;DHT22;1383;48.362;10.908;2023-07-29T12:52:18;25.70;57.60
2751;DHT22;1383;48.362;10.908;2023-07-29T12:54:45;25.70;57.50
2751;DHT22;1383;48.362;10.908;2023-07-29T12:57:13;25.80;56.30
2751;DHT22;1383;48.362;10.908;2023-07-29T12:59:40;25.60;55.40
2751;DHT22;1383;48.362;10.908;2023-07-29T13:02:09;25.60;55.30
2751;DHT22;1383;48.362;10.908;2023-07-29T13:04:40;25.70;57.00
2751;DHT22;1383;48.362;10.908;2023-07-29T13:07:13;25.80;57.00
2751;DHT22;1383;48.362;10.908;2023-07-29T13:09:47;25.90;56.20
2751;DHT22;1383;48.362;10.908;2023-07-29T13:12:14;25.90;55.30
2751;DHT22;1383;48.362;10.908;2023-07-29T13:15:00;26.00;54.90
2751;DHT22;1383;48.362;10.908;2023-07-29T13:17:28;26.30;54.10
2751;DHT22;1383;48.362;10.908;2023-07-29T13:19:56;26.50;53.30
2751;DHT22;1383;48.362;10.908;2023-07-29T13:22:27;26.80;52.70
2751;DHT22;1383;48.362;10.908;2023-07-29T13:24:55;26.80;52.30
2751;DHT22;1383;48.362;10.908;2023-07-29T13:27:23;26.70;52.70
2751;DHT22;1383;48.362;10.908;2023-07-29T13:29:51;26.70;52.30
2751;DHT22;1383;48.362;10.908;2023-07-29T13:32:19;26.70;50.80
2751;DHT22;1383;48.362;10.908;2023-07-29T13:34:47;26.70;50.80
2751;DHT22;1383;48.362;10.908;2023-07-29T13:37:15;26.90;49.80
2751;DHT22;1383;48.362;10.908;2023-07-29T13:39:43;27.10;50.60
2751;DHT22;1383;48.362;10.908;2023-07-29T13:42:10;27.30;49.20
2751;DHT22;1383;48.362;10.908;2023-07-29T13:44:38;27.50;49.30
2751;DHT22;1383;48.362;10.908;2023-07-29T13:47:06;27.60;48.30
2751;DHT22;1383;48.362;10.908;2023-07-29T13:49:36;27.60;46.90
2751;DHT22;1383;48.362;10.908;2023-07-29T13:52:04;27.70;46.50
2751;DHT22;1383;48.362;10.908;2023-07-29T13:54:31;27.60;47.10
2751;DHT22;1383;48.362;10.908;2023-07-29T13:56:59;27.70;47.10
2751;DHT22;1383;48.362;10.908;2023-07-29T13:59:27;27.80;47.00
2751;DHT22;1383;48.362;10.908;2023-07-29T14:01:54;27.90;47.00
2751;DHT22;1383;48.362;10.908;2023-07-29T14:04:23;27.80;46.60
2751;DHT22;1383;48.362;10.908;2023-07-29T14:06:51;27.70;46.50
2751;DHT22;1383;48.362;10.908;2023-07-29T14:09:25;27.70;46.70
2751;DHT22;1383;48.362;10.908;2023-07-29T14:12:10;27.70;46.30
2751;DHT22;1383;48.362;10.908;2023-07-29T14:14:47;27.70;46.20
2751;DHT22;1383;48.362;10.908;2023-07-29T14:17:30;27.70;46.30
2751;DHT22;1383;48.362;10.908;2023-07-29T14:20:01;27.60;47.00
2751;DHT22;1383;48.362;10.908;2023-07-29T14:25:15;27.60;46.10
2751;DHT22;1383;48.362;10.908;2023-07-29T14:27:45;27.30;43.50
2751;DHT22;1383;48.362;10.908;2023-07-29T14:30:18;27.30;43.40
2751;DHT22;1383;48.362;10.908;2023-07-29T14:32:49;27.00;42.00
2751;DHT22;1383;48.362;10.908;2023-07-29T14:35:28;26.80;41.40
2751;DHT22;1383;48.362;10.908;2023-07-29T14:37:56;26.60;41.10
2751;DHT22;1383;48.362;10.908;2023-07-29T14:40:26;26.50;43.00
2751;DHT22;1383;48.362;10.908;2023-07-29T14:43:10;26.40;42.60
2751;DHT22;1383;48.362;10.908;2023-07-29T14:45:38;26.30;42.40
2751;DHT22;1383;48.362;10.908;2023-07-29T14:48:17;26.40;42.70
2751;DHT22;1383;48.362;10.908;2023-07-29T14:51:21;26.50;42.00
2751;DHT22;1383;48.362;10.908;2023-07-29T14:54:04;26.60;40.70
2751;DHT22;1383;48.362;10.908;2023-07-29T14:56:54;26.50;46.10
2751;DHT22;1383;48.362;10.908;2023-07-29T14:59:22;26.60;46.70
2751;DHT22;1383;48.362;10.908;2023-07-29T15:01:52;26.20;49.10
2751;DHT22;1383;48.362;10.908;2023-07-29T15:04:20;25.70;48.10
2751;DHT22;1383;48.362;10.908;2023-07-29T15:06:50;25.20;44.00
2751;DHT22;1383;48.362;10.908;2023-07-29T15:09:34;24.80;43.80
2751;DHT22;1383;48.362;10.908;2023-07-29T15:12:03;24.50;44.70
2751;DHT22;1383;48.362;10.908;2023-07-29T15:14:33;24.30;46.70
2751;DHT22;1383;48.362;10.908;2023-07-29T15:17:14;24.20;46.60
2751;DHT22;1383;48.362;10.908;2023-07-29T15:19:57;24.20;46.10
2751;DHT22;1383;48.362;10.908;2023-07-29T15:22:40;24.30;46.40
2751;DHT22;1383;48.362;10.908;2023-07-29T15:25:53;24.50;46.00
2751;DHT22;1383;48.362;10.908;2023-07-29T15:28:41;24.60;46.10
2751;DHT22;1383;48.362;10.908;2023-07-29T15:31:19;24.70;45.70
2751;DHT22;1383;48.362;10.908;2023-07-29T15:34:41;24.70;45.70
2751;DHT22;1383;48.362;10.908;2023-07-29T15:37:28;24.70;46.00
2751;DHT22;1383;48.362;10.908;2023-07-29T15:40:18;24.80;46.90
2751;DHT22;1383;48.362;10.908;2023-07-29T15:42:48;24.80;45.10
2751;DHT22;1383;48.362;10.908;2023-07-29T15:45:20;24.80;44.70
2751;DHT22;1383;48.362;10.908;2023-07-29T15:47:52;24.70;44.40
2751;DHT22;1383;48.362;10.908;2023-07-29T15:50:54;24.70;44.00
2751;DHT22;1383;48.362;10.908;2023-07-29T15:53:25;24.60;44.40
2751;DHT22;1383;48.362;10.908;2023-07-29T15:55:53;24.60;44.50
2751;DHT22;1383;48.362;10.908;2023-07-29T15:58:21;24.60;45.10
2751;DHT22;1383;48.362;10.908;2023-07-29T16:01:02;24.40;44.60
2751;DHT22;1383;48.362;10.908;2023-07-29T16:03:41;24.20;45.60
2751;DHT22;1383;48.362;10.908;2023-07-29T16:06:16;24.20;46.40
2751;DHT22;1383;48.362;10.908;2023-07-29T16:08:45;24.00;46.70
2751;DHT22;1383;48.362;10.908;2023-07-29T16:36:07;21.30;87.30
2751;DHT22;1383;48.362;10.908;2023-07-29T18:13:27;20.10;98.00
2751;DHT22;1383;48.362;10.908;2023-07-29T18:15:55;20.10;98.00
2751;DHT22;1383;48.362;10.908;2023-07-29T18:18:26;20.20;97.90
2751;DHT22;1383;48.362;10.908;2023-07-29T18:21:02;20.20;97.40
2751;DHT22;1383;48.362;10.908;2023-07-29T18:23:32;20.20;97.20
2751;DHT22;1383;48.362;10.908;2023-07-29T19:51:41;19.90;95.50
2751;DHT22;1383;48.362;10.908;2023-07-29T19:54:15;19.90;95.70
2751;DHT22;1383;48.362;10.908;2023-07-29T19:56:46;19.90;95.80
2751;DHT22;1383;48.362;10.908;2023-07-29T19:59:17;19.90;96.30
2751;DHT22;1383;48.362;10.908;2023-07-29T20:01:57;20.00;95.50
2751;DHT22;1383;48.362;10.908;2023-07-29T20:04:27;19.90;95.30
2751;DHT22;1383;48.362;10.908;2023-07-29T20:07:06;19.90;95.10
2751;DHT22;1383;48.362;10.908;2023-07-29T21:32:56;19.80;93.20
2751;DHT22;1383;48.362;10.908;2023-07-29T21:35:28;19.80;92.60
2751;DHT22;1383;48.362;10.908;2023-07-29T21:38:10;19.80;92.50
2751;DHT22;1383;48.362;10.908;2023-07-29T21:40:56;19.80;92.40
2751;DHT22;1383;48.362;10.908;2023-07-29T21:43:25;19.80;92.40
2751;DHT22;1383;48.362;10.908;2023-07-29T21:45:54;19.80;92.20
2751;DHT22;1383;48.362;10.908;2023-07-29T21:48:25;19.90;91.60
2751;DHT22;1383;48.362;10.908;2023-07-29T21:51:06;19.90;91.40
2751;DHT22;1383;48.362;10.908;2023-07-29T21:53:35;19.90;91.10
2751;DHT22;1383;48.362;10.908;2023-07-29T21:56:06;19.90;90.90
2751;DHT22;1383;48.362;10.908;2023-07-29T21:58:37;19.90;91.30
2751;DHT22;1383;48.362;10.908;2023-07-29T22:01:08;19.90;91.20
2751;DHT22;1383;48.362;10.908;2023-07-29T22:03:53;19.90;91.50
2751;DHT22;1383;48.362;10.908;2023-07-29T22:09:25;19.80;91.70
2751;DHT22;1383;48.362;10.908;2023-07-29T22:12:01;19.80;91.80
2751;DHT22;1383;48.362;10.908;2023-07-29T22:14:37;19.80;92.00
2751;DHT22;1383;48.362;10.908;2023-07-29T22:17:06;19.80;92.00
2751;DHT22;1383;48.362;10.908;2023-07-29T22:19:37;19.80;91.60
2751;DHT22;1383;48.362;10.908;2023-07-29T22:22:08;19.80;91.40
2751;DHT22;1383;48.362;10.908;2023-07-29T22:24:36;19.80;90.90
2751;DHT22;1383;48.362;10.908;2023-07-29T22:27:03;19.80;90.60